createdAt,value
2024-02-29T00:00:47.579Z,101052.22
2024-02-29T00:03:16.591Z,101037.16
2024-02-29T00:05:46.034Z,101038.88
2024-02-29T00:08:19.933Z,101019.78
2024-02-29T00:10:48.772Z,101040.56
2024-02-29T00:13:18.794Z,100995.75
2024-02-29T00:15:47.363Z,101031.16
2024-02-29T00:18:25.862Z,100981.28
2024-02-29T00:20:54.440Z,101028.28
2024-02-29T00:23:24.936Z,101002.41
2024-02-29T00:25:54.114Z,101030.44
2024-02-29T00:28:24.260Z,101032.84
2024-02-29T00:30:52.934Z,101021.03
2024-02-29T00:33:22.705Z,100987.63
2024-02-29T00:35:55.448Z,101025.75
2024-02-29T00:38:26.568Z,101018.66
2024-02-29T00:40:57.604Z,100993.88
2024-02-29T00:43:28.505Z,101026.53
2024-02-29T00:46:21.432Z,101030.44
2024-02-29T00:48:51.224Z,100984.16
2024-02-29T00:51:20.774Z,101016.31
2024-02-29T00:53:50.645Z,101027.66
2024-02-29T00:56:25.033Z,100985.06
2024-02-29T00:58:58.682Z,101012.63
2024-02-29T01:01:29.547Z,100978.19
2024-02-29T01:03:58.103Z,100937.81
2024-02-29T01:06:27.736Z,100977.34
2024-02-29T01:08:56.715Z,100999.38
2024-02-29T01:11:25.258Z,100970.50
2024-02-29T01:13:59.002Z,100993.41
2024-02-29T01:16:27.658Z,101007.25
2024-02-29T01:18:59.047Z,100968.91
2024-02-29T01:21:29.868Z,100989.81
2024-02-29T01:24:00.042Z,100985.53
2024-02-29T01:26:30.789Z,100936.34
2024-02-29T01:29:05.699Z,100942.00
2024-02-29T01:31:35.142Z,100963.06
2024-02-29T01:34:04.465Z,100937.31
2024-02-29T01:36:37.347Z,100960.47
2024-02-29T01:39:07.452Z,100941.47
2024-02-29T01:41:36.820Z,100975.03
2024-02-29T01:44:06.842Z,100928.13
2024-02-29T01:46:36.028Z,100971.78
2024-02-29T01:49:04.978Z,100963.44
2024-02-29T01:51:35.792Z,100952.75
2024-02-29T01:54:07.497Z,100914.44
2024-02-29T01:56:39.603Z,100922.25
2024-02-29T01:59:10.037Z,100951.31
2024-02-29T02:01:40.275Z,100908.47
2024-02-29T02:04:10.398Z,100940.19
2024-02-29T02:06:39.839Z,100941.41
2024-02-29T02:09:12.048Z,100903.75
2024-02-29T02:11:40.703Z,100942.63
2024-02-29T02:14:26.419Z,100933.13
2024-02-29T02:17:03.242Z,100917.06
2024-02-29T02:19:34.586Z,100918.50
2024-02-29T02:22:11.867Z,100940.88
2024-02-29T02:24:40.338Z,100929.44
2024-02-29T02:27:12.680Z,100921.88
2024-02-29T02:29:40.967Z,100875.66
2024-02-29T02:32:09.741Z,100887.38
2024-02-29T02:34:38.184Z,100898.38
2024-02-29T02:37:08.427Z,100901.34
2024-02-29T02:39:37.231Z,100906.78
2024-02-29T02:42:06.611Z,100855.81
2024-02-29T02:44:35.380Z,100881.56
2024-02-29T02:47:04.785Z,100857.84
2024-02-29T02:49:33.061Z,100879.34
2024-02-29T02:52:03.534Z,100874.78
2024-02-29T02:54:33.426Z,100864.19
2024-02-29T02:57:01.776Z,100867.97
2024-02-29T02:59:31.691Z,100861.88
2024-02-29T03:02:00.243Z,100825.94
2024-02-29T03:04:30.087Z,100817.97
2024-02-29T03:06:59.606Z,100804.63
2024-02-29T03:09:30.255Z,100855.53
2024-02-29T03:12:01.999Z,100851.09
2024-02-29T03:14:31.682Z,100847.84
2024-02-29T03:17:00.580Z,100839.09
2024-02-29T03:19:29.272Z,100837.97
2024-02-29T03:21:57.667Z,100834.72
2024-02-29T03:24:27.357Z,100838.00
2024-02-29T03:26:55.940Z,100830.94
2024-02-29T03:29:25.682Z,100834.03
2024-02-29T03:31:55.051Z,100796.25
2024-02-29T03:34:25.086Z,100826.34
2024-02-29T03:36:55.746Z,100809.94
2024-02-29T03:39:25.615Z,100802.13
2024-02-29T03:41:54.614Z,100754.88
2024-02-29T03:44:23.595Z,100809.66
2024-02-29T03:46:54.042Z,100812.59
2024-02-29T03:49:22.648Z,100792.34
2024-02-29T03:51:53.618Z,100759.38
2024-02-29T03:54:22.666Z,100730.47
2024-02-29T03:56:51.186Z,100793.75
2024-02-29T03:59:22.372Z,100741.78
2024-02-29T04:01:55.307Z,100792.88
2024-02-29T04:04:24.274Z,100794.28
2024-02-29T04:06:53.905Z,100768.78
2024-02-29T04:09:23.788Z,100770.06
2024-02-29T04:11:52.245Z,100767.38
2024-02-29T04:14:22.355Z,100766.66
2024-02-29T04:16:52.618Z,100721.09
2024-02-29T04:19:22.454Z,100725.63
2024-02-29T04:21:52.443Z,100765.91
2024-02-29T04:24:21.890Z,100716.28
2024-02-29T04:26:50.602Z,100765.91
2024-02-29T04:29:21.542Z,100756.16
2024-02-29T04:31:50.430Z,100745.97
2024-02-29T04:34:19.796Z,100735.25
2024-02-29T04:36:54.929Z,100714.56
2024-02-29T04:39:23.089Z,100725.06
2024-02-29T04:41:51.795Z,100714.28
2024-02-29T04:44:20.973Z,100678.63
2024-02-29T04:46:53.266Z,100747.47
2024-02-29T04:49:23.164Z,100746.03
2024-02-29T04:51:52.892Z,100668.69
2024-02-29T04:54:21.525Z,100723.03
2024-02-29T04:56:49.815Z,100745.88
2024-02-29T04:59:18.279Z,100732.22
2024-02-29T05:01:47.443Z,100708.41
2024-02-29T05:04:16.453Z,100683.25
2024-02-29T05:06:45.048Z,100738.72
2024-02-29T05:09:15.319Z,100740.22
2024-02-29T05:11:43.871Z,100709.66
2024-02-29T05:14:12.248Z,100699.09
2024-02-29T05:16:40.910Z,100730.50
2024-02-29T05:19:09.464Z,100713.19
2024-02-29T05:21:39.326Z,100683.41
2024-02-29T05:24:09.253Z,100725.41
2024-02-29T05:26:40.303Z,100679.16
2024-02-29T05:29:10.622Z,100667.84
2024-02-29T05:31:39.980Z,100726.81
2024-02-29T05:34:10.585Z,100671.06
2024-02-29T05:36:39.485Z,100721.97
2024-02-29T05:39:12.271Z,100708.38
2024-02-29T05:41:42.720Z,100687.72
2024-02-29T05:44:11.537Z,100655.09
2024-02-29T05:46:44.498Z,100640.94
2024-02-29T05:49:13.761Z,100695.09
2024-02-29T05:51:44.089Z,100697.63
2024-02-29T05:54:12.928Z,100689.72
2024-02-29T05:56:44.157Z,100693.69
2024-02-29T05:59:15.606Z,100691.56
2024-02-29T06:01:49.346Z,100616.00
2024-02-29T06:04:18.494Z,100680.38
2024-02-29T06:06:49.843Z,100678.41
2024-02-29T06:09:20.602Z,100685.19
2024-02-29T06:11:50.717Z,100639.00
2024-02-29T06:14:19.726Z,100630.47
2024-02-29T06:16:51.341Z,100674.16
2024-02-29T06:19:20.513Z,100666.78
2024-02-29T06:21:52.349Z,100671.47
2024-02-29T06:24:21.290Z,100644.25
2024-02-29T06:26:51.018Z,100615.75
2024-02-29T06:29:19.288Z,100660.41
2024-02-29T06:31:48.621Z,100668.34
2024-02-29T06:34:18.333Z,100628.09
2024-02-29T06:36:50.198Z,100636.72
2024-02-29T06:39:18.747Z,100671.88
2024-02-29T06:41:50.173Z,100662.22
2024-02-29T06:44:20.824Z,100660.34
2024-02-29T06:46:50.717Z,100591.91
2024-02-29T06:49:21.601Z,100603.94
2024-02-29T06:51:49.916Z,100612.78
2024-02-29T06:54:19.218Z,100614.47
2024-02-29T06:56:49.034Z,100604.22
2024-02-29T06:59:17.454Z,100659.88
2024-02-29T07:01:49.157Z,100646.53
2024-02-29T07:04:17.621Z,100632.84
2024-02-29T07:06:46.313Z,100635.56
2024-02-29T07:09:15.454Z,100605.63
2024-02-29T07:11:43.641Z,100630.22
2024-02-29T07:14:13.419Z,100606.44
2024-02-29T07:16:44.144Z,100587.78
2024-02-29T07:19:15.950Z,100612.59
2024-02-29T07:21:44.325Z,100560.28
2024-02-29T07:24:14.002Z,100583.13
2024-02-29T07:26:43.237Z,100584.72
2024-02-29T07:29:13.745Z,100619.59
2024-02-29T07:31:43.975Z,100628.50
2024-02-29T07:34:12.544Z,100594.59
2024-02-29T07:36:43.292Z,100575.28
2024-02-29T07:39:18.822Z,100549.72
2024-02-29T07:41:49.034Z,100579.34
2024-02-29T07:44:17.351Z,100621.06
2024-02-29T07:46:46.144Z,100585.22
2024-02-29T07:49:14.707Z,100608.00
2024-02-29T07:51:44.725Z,100598.88
2024-02-29T07:54:13.605Z,100605.97
2024-02-29T07:56:43.395Z,100571.75
2024-02-29T07:59:12.122Z,100588.66
2024-02-29T08:01:41.438Z,100565.88
2024-02-29T08:04:11.076Z,100564.00
2024-02-29T08:06:39.922Z,100563.31
2024-02-29T08:09:10.854Z,100568.38
2024-02-29T08:11:42.271Z,100601.94
2024-02-29T08:14:10.787Z,100597.94
2024-02-29T08:16:42.010Z,100565.41
2024-02-29T08:19:10.767Z,100551.00
2024-02-29T08:21:40.732Z,100586.75
2024-02-29T08:24:11.763Z,100587.72
2024-02-29T08:26:40.229Z,100588.38
2024-02-29T08:29:09.309Z,100579.00
2024-02-29T08:31:37.884Z,100555.16
2024-02-29T08:34:07.420Z,100583.97
2024-02-29T08:36:36.342Z,100575.47
2024-02-29T08:39:04.997Z,100552.41
2024-02-29T08:41:34.847Z,100506.78
2024-02-29T08:44:04.500Z,100532.09
2024-02-29T08:46:32.951Z,100550.63
2024-02-29T08:49:03.932Z,100552.56
2024-02-29T08:51:32.921Z,100533.03
2024-02-29T08:54:01.612Z,100485.00
2024-02-29T08:56:30.027Z,100517.75
2024-02-29T08:59:00.372Z,100544.25
2024-02-29T09:01:29.981Z,100528.25
2024-02-29T09:03:58.511Z,100495.03
2024-02-29T09:06:38.862Z,100526.75
2024-02-29T09:09:10.288Z,100533.44
2024-02-29T09:11:40.208Z,100526.94
2024-02-29T09:14:10.150Z,100533.03
2024-02-29T09:16:38.704Z,100463.66
2024-02-29T09:19:07.437Z,100520.03
2024-02-29T09:21:37.171Z,100512.28
2024-02-29T09:24:06.896Z,100482.72
2024-02-29T09:26:37.055Z,100511.47
2024-02-29T09:29:07.738Z,100485.78
2024-02-29T09:31:38.592Z,100479.94
2024-02-29T09:34:08.755Z,100457.91
2024-02-29T09:36:38.918Z,100470.72
2024-02-29T09:39:07.642Z,100508.06
2024-02-29T09:44:12.929Z,100504.59
2024-02-29T09:46:47.984Z,100451.53
2024-02-29T09:49:16.956Z,100457.72
2024-02-29T09:51:47.356Z,100471.84
2024-02-29T09:54:21.060Z,100451.38
2024-02-29T09:56:50.132Z,100485.09
2024-02-29T09:59:21.212Z,100443.34
2024-02-29T10:01:54.112Z,100479.75
2024-02-29T10:04:22.946Z,100493.28
2024-02-29T10:06:51.868Z,100477.31
2024-02-29T10:09:22.396Z,100447.81
2024-02-29T10:11:50.790Z,100484.69
2024-02-29T10:14:23.188Z,100470.19
2024-02-29T10:16:53.652Z,100484.66
2024-02-29T10:19:22.785Z,100468.63
2024-02-29T10:21:51.956Z,100441.13
2024-02-29T10:24:22.717Z,100481.31
2024-02-29T10:26:51.980Z,100460.09
2024-02-29T10:29:23.984Z,100429.75
2024-02-29T10:31:54.874Z,100433.13
2024-02-29T10:34:23.844Z,100456.28
2024-02-29T10:36:52.587Z,100463.47
2024-02-29T10:39:21.252Z,100464.75
2024-02-29T10:41:52.395Z,100454.22
2024-02-29T10:44:24.135Z,100411.06
2024-02-29T10:46:57.441Z,100450.22
2024-02-29T10:49:32.887Z,100400.53
2024-02-29T10:52:09.025Z,100445.19
2024-02-29T10:54:41.699Z,100416.13
2024-02-29T10:57:19.124Z,100395.94
2024-02-29T10:59:54.808Z,100435.91
2024-02-29T11:02:25.393Z,100391.91
2024-02-29T11:04:56.673Z,100428.97
2024-02-29T11:07:27.443Z,100420.13
2024-02-29T11:09:56.196Z,100367.06
2024-02-29T11:12:29.588Z,100372.75
2024-02-29T11:15:00.498Z,100413.78
2024-02-29T11:17:33.787Z,100403.06
2024-02-29T11:20:04.896Z,100411.69
2024-02-29T11:22:35.781Z,100384.22
2024-02-29T11:25:11.014Z,100401.69
2024-02-29T11:27:40.257Z,100403.31
2024-02-29T11:30:11.766Z,100383.31
2024-02-29T11:32:44.073Z,100401.47
2024-02-29T11:35:16.114Z,100392.13
2024-02-29T11:37:45.993Z,100403.88
2024-02-29T11:40:17.453Z,100374.03
2024-02-29T11:42:48.936Z,100374.16
2024-02-29T11:45:23.961Z,100361.94
2024-02-29T11:47:57.623Z,100376.91
2024-02-29T11:50:27.173Z,100369.13
2024-02-29T11:53:02.489Z,100362.19
2024-02-29T11:55:32.425Z,100356.13
2024-02-29T11:58:07.255Z,100314.22
2024-02-29T12:00:38.853Z,100362.16
2024-02-29T12:03:11.991Z,100338.78
2024-02-29T12:05:40.968Z,100358.16
2024-02-29T12:08:10.691Z,100341.81
2024-02-29T12:10:42.048Z,100293.03
2024-02-29T12:13:10.756Z,100302.25
2024-02-29T12:15:40.859Z,100329.41
2024-02-29T12:18:14.647Z,100306.69
2024-02-29T12:20:43.139Z,100323.09
2024-02-29T12:23:15.780Z,100305.47
2024-02-29T12:25:45.631Z,100322.69
2024-02-29T12:28:19.068Z,100316.63
2024-02-29T12:30:51.339Z,100323.09
2024-02-29T12:33:24.523Z,100310.72
2024-02-29T12:35:54.612Z,100276.84
2024-02-29T12:38:25.098Z,100278.31
2024-02-29T12:40:56.142Z,100303.56
2024-02-29T12:43:26.150Z,100273.69
2024-02-29T12:45:58.983Z,100280.22
2024-02-29T12:48:29.410Z,100296.38
2024-02-29T12:51:03.460Z,100289.25
2024-02-29T12:53:31.892Z,100250.78
2024-02-29T12:56:01.914Z,100271.19
2024-02-29T12:58:32.281Z,100234.59
2024-02-29T13:01:07.837Z,100270.38
2024-02-29T13:03:38.444Z,100269.13
2024-02-29T13:06:08.205Z,100234.44
2024-02-29T13:08:36.671Z,100262.81
2024-02-29T13:11:05.266Z,100259.63
2024-02-29T13:13:34.167Z,100238.22
2024-02-29T13:16:05.703Z,100225.41
2024-02-29T13:18:34.722Z,100232.53
2024-02-29T13:21:06.331Z,100204.97
2024-02-29T13:23:36.123Z,100243.22
2024-02-29T13:26:06.131Z,100207.28
2024-02-29T13:28:34.887Z,100239.63
2024-02-29T13:31:03.739Z,100225.56
2024-02-29T13:33:32.260Z,100187.75
2024-02-29T13:36:00.628Z,100205.56
2024-02-29T13:38:31.654Z,100219.22
2024-02-29T13:41:00.443Z,100216.50
2024-02-29T13:43:29.465Z,100211.44
2024-02-29T13:45:57.937Z,100205.13
2024-02-29T13:48:27.053Z,100188.75
2024-02-29T13:50:55.515Z,100145.50
2024-02-29T13:53:24.094Z,100173.59
2024-02-29T13:55:54.101Z,100140.03
2024-02-29T13:58:22.918Z,100183.91
2024-02-29T14:00:51.581Z,100123.84
2024-02-29T14:03:20.580Z,100138.28
2024-02-29T14:05:51.014Z,100163.06
2024-02-29T14:08:27.572Z,100121.88
2024-02-29T14:10:58.853Z,100090.41
2024-02-29T14:13:30.698Z,100158.47
2024-02-29T14:15:59.388Z,100142.06
2024-02-29T14:18:27.960Z,100139.03
2024-02-29T14:20:59.395Z,100121.44
2024-02-29T14:23:30.931Z,100132.75
2024-02-29T14:26:03.846Z,100122.69
2024-02-29T14:28:32.793Z,100101.28
2024-02-29T14:31:01.670Z,100089.28
2024-02-29T14:33:30.102Z,100089.47
2024-02-29T14:36:01.341Z,100069.97
2024-02-29T14:38:30.017Z,100077.31
2024-02-29T14:41:02.799Z,100089.25
2024-02-29T14:43:31.472Z,100058.00
2024-02-29T14:46:05.598Z,100095.09
2024-02-29T14:48:36.337Z,100037.34
2024-02-29T14:51:05.327Z,100081.66
2024-02-29T14:53:37.104Z,100088.56
2024-02-29T14:56:07.941Z,100076.78
2024-02-29T14:58:36.673Z,100064.06
2024-02-29T15:01:10.520Z,100082.38
2024-02-29T15:03:41.590Z,100047.94
2024-02-29T15:06:12.666Z,100036.22
2024-02-29T15:08:42.512Z,100026.53
2024-02-29T15:11:14.013Z,100047.09
2024-02-29T15:13:48.264Z,100045.56
2024-02-29T15:16:17.842Z,99982.81
2024-02-29T15:18:47.061Z,100060.88
2024-02-29T15:21:15.677Z,100052.88
2024-02-29T15:23:45.907Z,100052.66
2024-02-29T15:26:16.599Z,100030.56
2024-02-29T15:28:51.040Z,100037.72
2024-02-29T15:31:20.876Z,100042.97
2024-02-29T15:33:50.556Z,100032.88
2024-02-29T15:36:19.229Z,100021.72
2024-02-29T15:38:50.601Z,100031.44
2024-02-29T15:41:21.416Z,100030.56
2024-02-29T15:43:49.915Z,100020.13
2024-02-29T15:46:21.547Z,99986.59
2024-02-29T15:48:51.261Z,100024.72
2024-02-29T15:51:20.053Z,100010.88
2024-02-29T15:53:48.420Z,99987.81
2024-02-29T15:56:17.605Z,100005.78
2024-02-29T15:58:47.780Z,99955.06
2024-02-29T16:01:17.121Z,99974.84
2024-02-29T16:03:45.874Z,100002.66
2024-02-29T16:06:15.631Z,99977.53
2024-02-29T16:08:44.536Z,100009.19
2024-02-29T16:11:15.299Z,99965.97
2024-02-29T16:13:44.878Z,100008.41
2024-02-29T16:16:16.080Z,99995.81
2024-02-29T16:18:44.432Z,99992.66
2024-02-29T16:21:14.256Z,99957.50
2024-02-29T16:23:44.937Z,99944.31
2024-02-29T16:26:14.864Z,99979.13
2024-02-29T16:28:45.481Z,99968.25
2024-02-29T16:31:16.281Z,99949.81
2024-02-29T16:33:45.355Z,99964.47
2024-02-29T16:36:15.055Z,99980.84
2024-02-29T16:38:43.864Z,99988.47
2024-02-29T16:41:15.491Z,99975.84
2024-02-29T16:43:43.980Z,99927.88
2024-02-29T16:46:12.671Z,99957.84
2024-02-29T16:48:42.898Z,99931.63
2024-02-29T16:51:12.869Z,99928.91
2024-02-29T16:53:41.438Z,99961.03
2024-02-29T16:56:10.438Z,99980.94
2024-02-29T16:58:43.059Z,99957.25
2024-02-29T17:01:11.969Z,99941.47
2024-02-29T17:03:44.368Z,99944.63
2024-02-29T17:06:13.497Z,99977.16
2024-02-29T17:08:41.767Z,99958.00
2024-02-29T17:11:10.816Z,99971.69
2024-02-29T17:13:47.002Z,99984.91
2024-02-29T17:16:15.736Z,99941.59
2024-02-29T17:18:50.490Z,99938.44
2024-02-29T17:21:19.937Z,99962.38
2024-02-29T17:23:48.646Z,99942.19
2024-02-29T17:26:20.515Z,99917.00
2024-02-29T17:28:52.911Z,99963.59
2024-02-29T17:31:23.463Z,99908.63
2024-02-29T17:33:57.430Z,99964.22
2024-02-29T17:36:47.802Z,99967.38
2024-02-29T17:39:38.182Z,99955.00
2024-02-29T17:42:29.656Z,99965.66
2024-02-29T17:45:17.610Z,99958.69
2024-02-29T17:48:05.542Z,99907.28
2024-02-29T17:50:54.329Z,99917.72
2024-02-29T17:53:50.977Z,99960.53
2024-02-29T17:56:38.087Z,99952.97
2024-02-29T17:59:25.913Z,99948.78
2024-02-29T18:02:17.266Z,99916.44
2024-02-29T18:05:10.619Z,99954.59
2024-02-29T18:08:06.862Z,99937.13
2024-02-29T18:10:59.150Z,99881.63
2024-02-29T18:13:46.778Z,99952.13
2024-02-29T18:16:36.223Z,99951.88
2024-02-29T18:19:23.903Z,99938.78
2024-02-29T18:22:11.479Z,99939.59
2024-02-29T18:25:00.703Z,99899.22
2024-02-29T18:27:50.844Z,99916.81
2024-02-29T18:30:39.241Z,99951.00
2024-02-29T18:33:27.565Z,99934.03
2024-02-29T18:36:15.603Z,99952.25
2024-02-29T18:39:04.585Z,99920.25
2024-02-29T18:41:56.706Z,99942.09
2024-02-29T18:44:45.862Z,99952.19
2024-02-29T18:47:35.955Z,99901.53
2024-02-29T18:50:29.607Z,99892.31
2024-02-29T18:53:11.218Z,99924.00
2024-02-29T18:55:44.099Z,99904.84
2024-02-29T18:58:17.236Z,99912.16
2024-02-29T19:00:48.337Z,99897.31
2024-02-29T19:03:25.029Z,99915.78
2024-02-29T19:05:56.372Z,99911.13
2024-02-29T19:08:25.756Z,99899.53
2024-02-29T19:10:58.794Z,99870.81
2024-02-29T19:13:48.725Z,99883.63
2024-02-29T19:16:18.910Z,99896.75
2024-02-29T19:18:48.099Z,99852.84
2024-02-29T19:21:17.192Z,99927.81
2024-02-29T19:23:46.035Z,99877.00
2024-02-29T19:26:24.266Z,99882.06
2024-02-29T19:28:57.642Z,99931.50
2024-02-29T19:31:27.615Z,99876.75
2024-02-29T19:33:56.695Z,99858.16
2024-02-29T19:36:28.968Z,99892.38
2024-02-29T19:39:00.741Z,99900.41
2024-02-29T19:41:35.464Z,99918.88
2024-02-29T19:44:26.207Z,99867.50
2024-02-29T19:46:59.018Z,99921.44
2024-02-29T19:49:31.921Z,99879.53
2024-02-29T19:52:03.074Z,99913.19
2024-02-29T19:54:32.684Z,99893.53
2024-02-29T19:57:01.646Z,99907.25
2024-02-29T19:59:32.055Z,99854.22
2024-02-29T20:02:01.513Z,99857.78
2024-02-29T20:04:31.108Z,99857.19
2024-02-29T20:07:10.435Z,99830.31
2024-02-29T20:09:39.513Z,99848.78
2024-02-29T20:12:18.120Z,99888.25
2024-02-29T20:14:51.219Z,99895.09
2024-02-29T20:17:25.866Z,99819.09
2024-02-29T20:19:57.707Z,99866.66
2024-02-29T20:22:28.660Z,99848.81
2024-02-29T20:24:59.143Z,99816.75
2024-02-29T20:27:28.175Z,99885.97
2024-02-29T20:30:14.265Z,99879.19
2024-02-29T20:32:45.364Z,99803.06
2024-02-29T20:35:17.804Z,99828.44
2024-02-29T20:37:47.058Z,99862.91
2024-02-29T20:40:18.239Z,99864.13
2024-02-29T20:42:47.710Z,99827.53
2024-02-29T20:45:18.063Z,99822.09
2024-02-29T20:47:47.417Z,99808.19
2024-02-29T20:50:16.630Z,99852.47
2024-02-29T20:52:45.929Z,99852.69
2024-02-29T20:55:16.296Z,99810.59
2024-02-29T20:57:49.796Z,99812.25
2024-02-29T21:00:22.355Z,99860.00
2024-02-29T21:02:52.267Z,99813.22
2024-02-29T21:05:23.115Z,99854.31
2024-02-29T21:07:56.994Z,99846.75
2024-02-29T21:10:30.125Z,99848.25
2024-02-29T21:13:02.085Z,99841.47
2024-02-29T21:15:34.110Z,99791.00
2024-02-29T21:18:04.907Z,99832.13
2024-02-29T21:20:35.796Z,99837.47
2024-02-29T21:23:10.839Z,99829.63
2024-02-29T21:25:43.481Z,99824.38
2024-02-29T21:28:16.834Z,99822.69
2024-02-29T21:30:49.302Z,99818.13
2024-02-29T21:33:21.697Z,99813.34
2024-02-29T21:35:51.587Z,99821.97
2024-02-29T21:38:20.563Z,99800.84
2024-02-29T21:40:52.512Z,99813.25
2024-02-29T21:43:26.975Z,99777.50
2024-02-29T21:45:57.589Z,99810.66
2024-02-29T21:48:26.828Z,99805.03
2024-02-29T21:50:56.770Z,99763.53
2024-02-29T21:53:31.430Z,99741.53
2024-02-29T21:56:05.957Z,99807.56
2024-02-29T21:58:43.312Z,99781.00
2024-02-29T22:01:13.805Z,99756.59
2024-02-29T22:03:43.443Z,99785.50
2024-02-29T22:06:12.846Z,99716.72
2024-02-29T22:08:46.618Z,99788.09
2024-02-29T22:11:19.460Z,99740.59
2024-02-29T22:13:48.093Z,99754.06
2024-02-29T22:16:18.679Z,99778.56
2024-02-29T22:18:48.464Z,99753.81
2024-02-29T22:21:17.240Z,99759.69
2024-02-29T22:23:45.717Z,99770.00
2024-02-29T22:26:14.614Z,99724.47
2024-02-29T22:28:43.918Z,99770.53
2024-02-29T22:31:13.512Z,99714.38
2024-02-29T22:33:53.826Z,99682.84
2024-02-29T22:36:22.874Z,99748.25
2024-02-29T22:38:51.524Z,99720.94
2024-02-29T22:41:25.287Z,99681.97
2024-02-29T22:43:54.047Z,99755.94
2024-02-29T22:46:23.307Z,99757.19
2024-02-29T22:48:54.392Z,99733.03
2024-02-29T22:51:27.288Z,99739.09
2024-02-29T22:53:56.277Z,99761.31
2024-02-29T22:56:26.537Z,99768.22
2024-02-29T22:58:55.248Z,99754.69
2024-02-29T23:01:27.368Z,99756.28
2024-02-29T23:03:59.416Z,99717.91
2024-02-29T23:06:31.512Z,99737.16
2024-02-29T23:09:10.577Z,99759.34
2024-02-29T23:11:44.886Z,99761.31
2024-02-29T23:14:20.530Z,99755.91
2024-02-29T23:16:52.493Z,99714.81
2024-02-29T23:19:25.816Z,99714.16
2024-02-29T23:22:05.597Z,99711.88
2024-02-29T23:24:34.874Z,99692.66
2024-02-29T23:27:04.352Z,99665.00
2024-02-29T23:29:32.933Z,99737.63
2024-02-29T23:32:01.555Z,99729.00
2024-02-29T23:34:46.077Z,99720.78
2024-02-29T23:37:15.203Z,99734.34
2024-02-29T23:39:44.102Z,99685.50
2024-02-29T23:42:13.025Z,99673.13
2024-02-29T23:44:44.562Z,99689.34
2024-02-29T23:47:13.649Z,99706.72
2024-02-29T23:49:44.261Z,99677.47
2024-02-29T23:52:13.275Z,99720.59
2024-02-29T23:54:42.045Z,99729.59
2024-02-29T23:57:10.577Z,99735.06
2024-02-29T23:59:45.323Z,99681.91
